ADDS METAR Data INFO
IDs: Format: Raw Decoded Include TAF

Data at: 2313 UTC 16 Jan 2018

KBBG 162245Z 32009KT 10SM FEW017 M14/M19 A3067
KBBG 162145Z 31007KT 10SM FEW017 M14/M19 A3066
KBBG 162045Z 30008KT 10SM FEW025 M13/M19 A3065
KBBG 161949Z 32010G14KT 10SM SCT025 M13/M19 A3065
KBBG 161847Z 31009KT 10SM FEW023 SCT040 M14/M19 A3067
KBBG 161747Z 29006KT 10SM FEW025 SCT040 M15/M20 A3070
KBBG 161646Z 31007KT 10SM BKN031 M16/M21 A3072
KBBG 161545Z 31006G15KT 10SM FEW015 SCT037 M17/M22 A3073
KBBG 161445Z 31008G16KT 10SM SCT037 M18/M23 A3071
KBBG 161347Z 31006KT 10SM SCT030 M18/M22 A3069
KBBG 161248Z 31009G16KT 10SM SCT027 M18/M22 A3068
KBBG 161215Z AUTO 31009G14KT 10SM OVC027 M18/M22 A3068 RMK AO2
KBBG 161155Z AUTO 31008KT 10SM OVC025 M18/M22 A3067 RMK AO2
KBBG 161135Z AUTO 32008KT 10SM BKN025 M18/M22 A3067 RMK AO2
KBBG 161115Z AUTO 31007KT 10SM OVC025 M18/M22 A3066 RMK AO2
KBBG 161055Z AUTO 31008KT 10SM OVC025 M18/M21 A3066 RMK AO2
KBBG 161035Z AUTO 30006KT 10SM OVC025 M18/M21 A3066 RMK AO2
KBBG 161015Z AUTO 32008KT 10SM BKN027 M17/M22 A3065 RMK AO2
KBBG 160955Z AUTO 31010KT 10SM OVC027 M17/M21 A3065 RMK AO2
KBBG 160935Z AUTO 30007KT 10SM OVC029 M17/M22 A3065 RMK AO2
KBBG 160915Z AUTO 31007KT 10SM BKN029 M17/M22 A3064 RMK AO2
KBBG 160855Z AUTO 31006KT 10SM SCT029 M17/M21 A3064 RMK AO2
KBBG 160835Z AUTO 31008KT 10SM OVC029 M17/M21 A3064 RMK AO2
KBBG 160815Z AUTO 31010G15KT 10SM OVC029 M16/M20 A3063 RMK AO2
KBBG 160755Z AUTO 32011G18KT 10SM OVC027 M16/M20 A3063 RMK AO2
KBBG 160735Z AUTO 31012G16KT 10SM BKN027 M16/M20 A3063 RMK AO2
KBBG 160715Z AUTO 32010G20KT 10SM BKN027 M15/M20 A3063 RMK AO2
KBBG 160655Z AUTO 31011G23KT 10SM OVC027 M15/M19 A3062 RMK AO2
KBBG 160635Z AUTO 32018G22KT 10SM SCT027 M15/M19 A3061 RMK AO2
KBBG 160615Z AUTO 32012G20KT 10SM CLR M14/M19 A3061 RMK AO2
KBBG 160555Z AUTO 32015G19KT 10SM FEW025 M14/M19 A3061 RMK AO2
KBBG 160535Z AUTO 32018G24KT 10SM BKN025 M13/M19 A3062 RMK AO2
KBBG 160515Z AUTO 32014KT 10SM BKN023 BKN028 BKN120 M13/M18 A3061 RMK AO2
KBBG 160455Z AUTO 33015G19KT 10SM SCT027 BKN120 M13/M18 A3061 RMK AO2
KBBG 160435Z AUTO 33014G18KT 10SM SCT025 BKN120 M13/M18 A3060 RMK AO2
KBBG 160415Z AUTO 32012G20KT 10SM FEW025 BKN120 M13/M18 A3060 RMK AO2
KBBG 160355Z AUTO 31009KT 10SM FEW027 OVC120 M12/M17 A3060 RMK AO2
KBBG 160335Z AUTO 31011G15KT 10SM OVC110 M12/M17 A3059 RMK AO2
KBBG 160315Z AUTO 31009G17KT 10SM FEW022 OVC110 M12/M17 A3059 RMK AO2
KBBG 160255Z AUTO 31009G14KT 10SM FEW024 OVC110 M12/M16 A3059 RMK AO2
KBBG 160245Z 31008KT 10SM FEW095 OVC120 M12/M16 A3058
KBBG 160145Z 31010G19KT 10SM FEW015 SCT024 OVC080 M11/M15 A3056
KBBG 160045Z 32011G15KT 10SM OVC019 M10/M13 A3053
KBBG 152345Z 31010KT 10SM BKN023 OVC042 M09/M13 A3049
KBBG 152245Z 31010KT 10SM -SN SCT047 OVC080 M08/M12 A3046
KBBG 152145Z 33010G14KT 10SM -SN SCT018 OVC070 M08/M11 A3045
KBBG 152045Z 33011KT 1 3/4SM -SN BR BKN009 OVC017 M08/M09 A3042
KBBG 151945Z 31008KT 1SM -SN BR OVC012 M05/M08 A3040
KBBG 151845Z 31013KT 1/2SM +SN FG VV005 M05/M07 A3039
KBBG 151748Z 31008G14KT 3/4SM SN BR VV005 M05/M06 A3040
KBBG 151650Z 31017G27KT 1/2SM SN FG VV005 M03/M04 A3041
KBBG 151610Z 33015G25KT 1/4SM +SN FG OVC005 M01/M02 A3038
KBBG 151549Z 33008KT 3/4SM SN BR OVC005 00/M01 A3037
KBBG 151527Z 32008G14KT 3/4SM SN BR BKN006 OVC020 00/M01 A3035
KBBG 151451Z 31007KT 2SM -SN BR BKN006 OVC013 00/M01 A3034
KBBG 151353Z 30007KT 2SM -SN BR BKN007 OVC011 00/M01 A3031
KBBG 151255Z 31009G15KT 5SM -SN BR BKN016 OVC055 00/M02 A3029
KBBG 151215Z AUTO 31008KT 10SM SCT018 BKN033 OVC070 00/M05 A3027 RMK AO2
KBBG 151155Z AUTO 30005KT 10SM SCT031 BKN044 OVC070 00/M05 A3025 RMK AO2
KBBG 151135Z AUTO 30006KT 10SM BKN060 OVC080 00/M06 A3025 RMK AO2
KBBG 151115Z AUTO 29005KT 10SM BKN060 OVC080 01/M06 A3024 RMK AO2